Time;durP1;ratioP1;P1;durP2;ratioP2;P2;SDS_P1;SDS_P2;PMS_P1;PMS_P2;Temp;Humidity;BMP_temperature;BMP_pressure;BME280_temperature;BME280_humidity;BME280_pressure;Samples;Min_cycle;Max_cycle;Signal;HPM_P1;HPM_P2
2021/08/17 00:01:31;;;;;;;8.90;5.20;;;17.10;73.70;;;;;;5045958;28;20051;-70
2021/08/17 00:04:16;;;;;;;11.52;5.30;;;17.10;74.00;;;;;;5045667;28;20039;-70
2021/08/17 00:07:01;;;;;;;10.13;5.35;;;17.00;73.90;;;;;;5045404;28;20056;-70
2021/08/17 00:09:45;;;;;;;13.00;5.40;;;17.00;74.00;;;;;;5030881;28;20032;-70
2021/08/17 00:12:29;;;;;;;15.15;6.18;;;17.10;74.30;;;;;;5045570;28;20085;-69
2021/08/17 00:15:14;;;;;;;8.95;5.28;;;17.00;74.30;;;;;;5045531;28;20028;-70
2021/08/17 00:17:58;;;;;;;9.40;5.45;;;17.00;74.20;;;;;;5045941;28;20024;-70
2021/08/17 00:20:43;;;;;;;12.70;6.25;;;16.90;74.30;;;;;;5045597;28;20331;-70
2021/08/17 00:23:28;;;;;;;10.50;5.97;;;16.90;74.20;;;;;;5045082;28;20056;-70
2021/08/17 00:26:12;;;;;;;11.30;6.00;;;16.90;74.50;;;;;;5031006;28;20032;-70
2021/08/17 00:28:56;;;;;;;11.65;6.05;;;16.80;74.50;;;;;;5045645;28;20071;-70
2021/08/17 00:31:40;;;;;;;9.70;5.70;;;16.80;74.70;;;;;;5045480;28;20048;-70
2021/08/17 00:34:25;;;;;;;11.73;5.60;;;16.80;74.80;;;;;;5045413;28;20067;-70
2021/08/17 00:37:09;;;;;;;9.05;5.72;;;16.80;74.70;;;;;;5045299;28;20076;-70
2021/08/17 00:39:53;;;;;;;11.95;6.07;;;16.80;74.90;;;;;;5044332;28;20024;-70
2021/08/17 00:42:42;;;;;;;10.55;5.63;;;16.80;74.40;;;;;;5045003;28;20260;-70
2021/08/17 00:45:27;;;;;;;10.75;6.07;;;16.80;74.60;;;;;;5044924;28;20097;-69
2021/08/17 00:48:11;;;;;;;9.77;5.50;;;16.80;74.70;;;;;;5045378;28;20032;-70
2021/08/17 00:50:55;;;;;;;11.63;5.72;;;16.90;74.80;;;;;;5044978;28;20355;-70
2021/08/17 00:53:39;;;;;;;10.15;6.25;;;16.80;75.00;;;;;;5044976;28;20056;-70
2021/08/17 00:56:24;;;;;;;9.43;5.70;;;16.80;75.10;;;;;;5044945;28;20367;-70
2021/08/17 00:59:10;;;;;;;9.18;5.78;;;16.80;75.30;;;;;;5045080;28;20071;-70
2021/08/17 01:01:54;;;;;;;9.35;5.40;;;16.80;75.20;;;;;;5044902;28;20379;-70
2021/08/17 01:04:38;;;;;;;9.32;5.90;;;16.80;75.20;;;;;;5044583;28;20213;-70
2021/08/17 01:07:23;;;;;;;11.10;6.05;;;16.80;75.10;;;;;;5044801;28;20032;-70
2021/08/17 01:10:08;;;;;;;10.90;5.60;;;16.80;75.20;;;;;;5044473;28;20214;-70
2021/08/17 01:12:52;;;;;;;9.45;5.65;;;16.80;75.10;;;;;;5044473;28;20033;-70
2021/08/17 01:15:37;;;;;;;11.25;5.93;;;16.80;75.20;;;;;;5044387;28;20053;-69
2021/08/17 01:18:21;;;;;;;10.20;6.00;;;16.80;75.20;;;;;;5043711;28;20277;-69
2021/08/17 01:21:08;;;;;;;9.93;5.35;;;16.80;75.50;;;;;;5043799;28;20083;-70
2021/08/17 01:23:52;;;;;;;11.23;6.03;;;16.80;75.20;;;;;;5044116;28;20056;-70
2021/08/17 01:26:36;;;;;;;9.98;5.57;;;16.80;75.30;;;;;;5044195;28;20075;-70
2021/08/17 01:29:21;;;;;;;9.25;5.38;;;16.80;75.20;;;;;;5044645;28;20036;-70
2021/08/17 01:32:05;;;;;;;8.95;5.70;;;16.80;75.40;;;;;;5044116;28;20441;-70
2021/08/17 01:34:49;;;;;;;10.73;5.57;;;16.80;75.50;;;;;;5044077;28;20032;-70
2021/08/17 01:37:33;;;;;;;9.32;5.00;;;16.80;75.50;;;;;;5044043;28;20087;-70
2021/08/17 01:40:18;;;;;;;10.38;5.32;;;16.80;75.40;;;;;;5043937;28;20028;-70
2021/08/17 01:43:02;;;;;;;8.77;5.35;;;16.80;76.10;;;;;;5043889;28;20072;-70
2021/08/17 01:46:03;;;;;;;10.13;5.20;;;16.70;75.60;;;;;;5043963;28;20072;-70
2021/08/17 01:48:47;;;;;;;9.98;5.07;;;16.80;75.60;;;;;;5043981;28;20378;-70
2021/08/17 01:51:31;;;;;;;6.93;4.13;;;16.70;75.50;;;;;;5043857;28;20086;-70
2021/08/17 01:54:18;;;;;;;4.88;2.88;;;16.60;75.10;;;;;;5043786;28;20031;-69
2021/08/17 01:57:03;;;;;;;4.20;2.30;;;16.50;74.60;;;;;;5044173;28;20339;-70
2021/08/17 01:59:47;;;;;;;4.38;2.30;;;16.50;74.10;;;;;;5043875;28;20040;-70
2021/08/17 02:02:31;;;;;;;5.10;2.35;;;16.40;73.90;;;;;;5043202;28;20087;-70
2021/08/17 02:05:20;;;;;;;4.38;2.38;;;16.40;74.10;;;;;;5044098;28;20087;-70
2021/08/17 02:08:05;;;;;;;3.92;2.05;;;16.40;74.30;;;;;;5043639;28;20037;-70
2021/08/17 02:10:49;;;;;;;4.82;1.80;;;16.40;74.40;;;;;;5043592;28;20080;-70
2021/08/17 02:13:34;;;;;;;3.25;2.00;;;16.40;74.20;;;;;;5043529;28;20360;-70
2021/08/17 02:16:18;;;;;;;2.92;1.58;;;16.40;74.30;;;;;;5043510;28;20042;-70
2021/08/17 02:19:02;;;;;;;3.13;1.60;;;16.40;73.90;;;;;;5043505;28;20064;-70
2021/08/17 02:21:47;;;;;;;2.88;1.50;;;16.40;73.80;;;;;;5043478;28;20029;-70
2021/08/17 02:24:31;;;;;;;2.85;1.67;;;16.30;73.60;;;;;;5043276;28;20083;-70
2021/08/17 02:27:15;;;;;;;2.63;1.52;;;16.30;73.80;;;;;;5043469;28;20079;-69
2021/08/17 02:30:00;;;;;;;3.33;1.88;;;16.30;73.80;;;;;;5046192;28;20071;-70
2021/08/17 02:32:44;;;;;;;3.55;1.80;;;16.30;73.90;;;;;;5047633;28;20040;-70
2021/08/17 02:35:29;;;;;;;3.08;1.80;;;16.30;73.80;;;;;;5048154;28;20036;-70
2021/08/17 02:38:13;;;;;;;4.60;2.13;;;16.30;74.10;;;;;;5047802;28;20036;-70
2021/08/17 02:40:58;;;;;;;3.53;1.92;;;16.30;74.20;;;;;;5047658;28;20041;-70
2021/08/17 02:43:42;;;;;;;3.45;1.80;;;16.30;74.30;;;;;;5047473;28;20107;-70
2021/08/17 02:46:26;;;;;;;3.28;1.80;;;16.30;74.20;;;;;;5047453;28;20075;-70
2021/08/17 02:49:11;;;;;;;2.42;1.50;;;16.30;74.30;;;;;;5047377;28;20386;-69
2021/08/17 02:51:55;;;;;;;3.10;1.60;;;16.20;74.00;;;;;;5047239;28;20121;-69
2021/08/17 02:54:40;;;;;;;2.45;1.40;;;16.30;74.00;;;;;;5047605;28;20332;-69
2021/08/17 02:57:24;;;;;;;3.13;1.38;;;16.20;74.10;;;;;;5046962;28;20036;-70
2021/08/17 03:00:09;;;;;;;3.10;1.08;;;16.20;74.20;;;;;;5047392;28;20080;-70
2021/08/17 03:02:53;;;;;;;1.77;1.08;;;16.20;74.00;;;;;;5046987;28;20036;-70
2021/08/17 03:05:38;;;;;;;2.50;1.00;;;16.10;74.00;;;;;;5047028;28;20229;-70
2021/08/17 03:08:22;;;;;;;2.85;1.13;;;16.10;73.70;;;;;;5047322;28;20033;-70
2021/08/17 03:11:07;;;;;;;2.03;1.13;;;16.00;73.80;;;;;;5046716;28;20484;-70
2021/08/17 03:13:51;;;;;;;2.15;1.00;;;16.10;74.10;;;;;;5047040;28;20032;-70
2021/08/17 03:16:36;;;;;;;1.35;0.80;;;16.00;73.80;;;;;;5046642;28;20031;-70
2021/08/17 03:19:20;;;;;;;1.67;1.10;;;16.00;74.10;;;;;;5046608;28;20099;-70
2021/08/17 03:22:04;;;;;;;4.03;1.10;;;16.10;74.00;;;;;;5046617;28;20056;-70
2021/08/17 03:24:48;;;;;;;2.05;1.20;;;16.10;73.80;;;;;;5046316;28;20103;-69
2021/08/17 03:27:33;;;;;;;2.05;1.00;;;16.00;74.00;;;;;;5046452;28;20073;-69
2021/08/17 03:30:18;;;;;;;2.75;1.10;;;16.00;74.10;;;;;;5046336;28;20094;-68
2021/08/17 03:33:03;;;;;;;4.25;1.48;;;16.00;73.70;;;;;;5046803;28;20356;-70
2021/08/17 03:35:48;;;;;;;3.05;1.30;;;15.90;73.40;;;;;;5045498;28;20040;-70
2021/08/17 03:38:33;;;;;;;5.85;1.20;;;15.90;73.70;;;;;;5046827;28;20036;-70
2021/08/17 03:41:17;;;;;;;2.83;1.30;;;16.00;73.90;;;;;;5046037;28;20039;-70
2021/08/17 03:44:01;;;;;;;2.65;1.52;;;15.90;73.80;;;;;;5046105;28;20080;-69
2021/08/17 03:46:45;;;;;;;4.05;1.40;;;15.90;74.10;;;;;;5046437;28;20028;-70
2021/08/17 03:49:29;;;;;;;2.83;1.40;;;15.90;73.70;;;;;;5046066;28;20035;-70
2021/08/17 03:52:14;;;;;;;2.67;1.40;;;15.80;73.60;;;;;;5046184;28;20032;-70
2021/08/17 03:54:58;;;;;;;3.33;1.55;;;15.80;73.70;;;;;;5046102;28;20252;-70
2021/08/17 03:57:42;;;;;;;3.45;1.60;;;15.80;73.50;;;;;;5045856;28;20074;-70
2021/08/17 04:00:27;;;;;;;3.00;1.70;;;15.80;73.60;;;;;;5045804;28;20036;-69
2021/08/17 04:03:12;;;;;;;2.33;1.42;;;15.80;73.80;;;;;;5046184;28;20132;-70
2021/08/17 04:05:55;;;;;;;2.78;1.70;;;15.80;73.90;;;;;;5045874;28;20032;-70
2021/08/17 04:08:40;;;;;;;5.13;1.80;;;15.80;73.40;;;;;;5045880;28;20415;-70
2021/08/17 04:11:24;;;;;;;4.75;1.83;;;15.70;73.00;;;;;;5045629;28;20089;-70
2021/08/17 04:14:08;;;;;;;3.65;1.88;;;15.70;73.20;;;;;;5045573;28;20033;-70
2021/08/17 04:16:56;;;;;;;4.60;1.80;;;15.60;73.00;;;;;;5045522;28;20028;-70
2021/08/17 04:19:40;;;;;;;3.90;1.80;;;15.60;73.00;;;;;;5045486;28;20213;-69
2021/08/17 04:22:25;;;;;;;4.97;1.80;;;15.60;73.00;;;;;;5045295;28;20033;-69
2021/08/17 04:25:10;;;;;;;5.55;2.00;;;15.60;73.20;;;;;;5045539;28;20048;-69
2021/08/17 04:27:54;;;;;;;3.75;2.17;;;15.60;73.10;;;;;;5045285;28;20063;-69
2021/08/17 04:30:38;;;;;;;3.75;2.03;;;15.60;73.00;;;;;;5045249;28;20059;-69
2021/08/17 04:33:23;;;;;;;4.43;2.13;;;15.60;72.70;;;;;;5045199;28;20029;-69
2021/08/17 04:36:07;;;;;;;12.13;2.20;;;15.50;72.90;;;;;;5045645;28;20289;-70
2021/08/17 04:38:51;;;;;;;4.32;2.30;;;15.50;73.30;;;;;;5045288;28;20359;-70
2021/08/17 04:41:36;;;;;;;4.43;2.10;;;15.50;73.10;;;;;;5045106;28;20079;-70
2021/08/17 04:44:20;;;;;;;5.78;2.35;;;15.40;73.30;;;;;;5045382;28;20401;-70
2021/08/17 04:47:04;;;;;;;5.15;2.58;;;15.40;73.20;;;;;;5045345;28;20097;-70
2021/08/17 04:49:48;;;;;;;4.85;2.22;;;15.40;73.20;;;;;;5045258;28;20076;-70
2021/08/17 04:52:33;;;;;;;3.75;2.17;;;15.40;73.10;;;;;;5044144;28;20109;-70
2021/08/17 04:55:17;;;;;;;4.80;2.40;;;15.30;73.10;;;;;;5044966;28;20089;-70
2021/08/17 04:58:01;;;;;;;5.40;2.20;;;15.30;73.30;;;;;;5044878;28;20063;-70
2021/08/17 05:00:47;;;;;;;5.55;2.53;;;15.30;73.20;;;;;;5044767;28;20092;-69
2021/08/17 05:03:31;;;;;;;5.70;2.45;;;15.30;73.40;;;;;;5043697;28;20049;-69
2021/08/17 05:06:16;;;;;;;4.80;2.13;;;15.40;73.30;;;;;;5043630;28;20217;-69
2021/08/17 05:09:00;;;;;;;4.93;2.30;;;15.50;73.70;;;;;;5044971;28;20100;-70
2021/08/17 05:11:44;;;;;;;4.10;1.98;;;15.50;74.00;;;;;;5044625;28;20052;-70
2021/08/17 05:14:36;;;;;;;3.72;1.92;;;15.50;74.20;;;;;;5042211;27;20427;-45
2021/08/17 05:17:21;;;;;;;4.07;2.28;;;15.50;74.30;;;;;;5041579;28;20377;-45
2021/08/17 05:20:06;;;;;;;3.20;2.00;;;15.50;74.70;;;;;;5041550;28;20250;-44
2021/08/17 05:22:50;;;;;;;5.25;2.13;;;15.60;74.40;;;;;;5041109;28;20036;-46
2021/08/17 05:25:34;;;;;;;4.28;2.47;;;15.60;74.00;;;;;;5040839;28;20364;-45
2021/08/17 05:28:19;;;;;;;4.60;2.15;;;15.60;74.40;;;;;;5041351;28;20025;-46
2021/08/17 05:31:03;;;;;;;4.80;1.98;;;15.60;74.20;;;;;;5041154;28;20047;-46
2021/08/17 05:33:48;;;;;;;4.82;2.38;;;15.60;74.20;;;;;;5040746;28;20040;-45
2021/08/17 05:36:32;;;;;;;4.72;2.40;;;15.60;73.90;;;;;;5040788;28;20041;-45
2021/08/17 05:39:16;;;;;;;4.05;1.90;;;15.60;74.00;;;;;;5040751;28;20028;-46
2021/08/17 05:42:00;;;;;;;3.38;1.95;;;15.60;73.70;;;;;;5041284;28;20064;-45
2021/08/17 05:44:45;;;;;;;3.80;1.92;;;15.60;73.70;;;;;;5040828;28;20045;-45
2021/08/17 05:47:31;;;;;;;7.47;2.13;;;15.60;74.00;;;;;;5041434;28;20043;-46
2021/08/17 05:50:16;;;;;;;4.35;2.15;;;15.70;73.20;;;;;;5040524;28;20032;-45
2021/08/17 05:53:00;;;;;;;5.10;2.10;;;15.60;73.30;;;;;;5040845;28;20037;-44
2021/08/17 05:55:44;;;;;;;4.30;2.00;;;15.60;73.00;;;;;;5040893;28;20097;-45
2021/08/17 05:58:29;;;;;;;3.75;1.80;;;15.60;73.20;;;;;;5040691;28;20037;-44
2021/08/17 06:01:13;;;;;;;3.38;1.70;;;15.60;72.90;;;;;;5040471;28;20086;-45
2021/08/17 06:03:57;;;;;;;4.60;2.40;;;15.60;72.80;;;;;;5040386;28;20085;-45
2021/08/17 06:06:41;;;;;;;6.63;2.50;;;15.60;73.30;;;;;;5040378;28;20033;-45
2021/08/17 06:09:26;;;;;;;3.92;2.38;;;15.60;72.80;;;;;;5040098;28;20218;-46
2021/08/17 06:12:10;;;;;;;5.15;2.53;;;15.60;72.20;;;;;;5040070;28;20039;-46
2021/08/17 06:14:54;;;;;;;5.80;2.60;;;15.70;71.90;;;;;;5040183;28;20101;-45
2021/08/17 06:17:39;;;;;;;4.85;3.10;;;15.60;71.50;;;;;;5040256;28;20033;-49
2021/08/17 06:20:23;;;;;;;7.97;3.35;;;15.60;71.50;;;;;;5040455;28;20037;-45
2021/08/17 06:23:07;;;;;;;5.40;3.20;;;15.70;71.80;;;;;;5040259;28;20105;-46
2021/08/17 06:25:51;;;;;;;6.63;3.33;;;15.80;72.10;;;;;;5027538;28;20041;-46
2021/08/17 06:28:36;;;;;;;9.10;3.53;;;15.80;72.20;;;;;;5027012;28;20049;-46
2021/08/17 06:31:23;;;;;;;6.32;3.13;;;15.80;72.10;;;;;;5026884;28;20206;-45
2021/08/17 06:34:07;;;;;;;7.65;3.10;;;15.80;71.50;;;;;;5026482;28;20037;-46
2021/08/17 06:36:52;;;;;;;6.80;2.95;;;15.80;71.20;;;;;;5026682;28;20067;-45
2021/08/17 06:39:36;;;;;;;6.75;3.20;;;15.80;71.00;;;;;;5026465;28;20025;-45
2021/08/17 06:42:20;;;;;;;8.25;3.67;;;15.80;71.10;;;;;;5026390;28;20356;-45
2021/08/17 06:45:05;;;;;;;6.97;3.40;;;15.90;71.10;;;;;;5026700;28;20032;-45
2021/08/17 06:47:52;;;;;;;8.30;3.47;;;15.90;70.20;;;;;;5046233;28;20111;-46
2021/08/17 06:50:36;;;;;;;5.53;2.78;;;15.80;70.20;;;;;;5046024;28;20041;-45
2021/08/17 06:53:20;;;;;;;5.07;2.97;;;15.90;69.90;;;;;;5046142;28;20033;-45
2021/08/17 06:56:05;;;;;;;7.40;3.13;;;15.90;70.10;;;;;;5045846;28;20060;-45
2021/08/17 06:58:49;;;;;;;5.50;3.08;;;15.90;69.90;;;;;;5045809;28;20033;-45
2021/08/17 07:01:33;;;;;;;6.60;3.17;;;15.90;69.20;;;;;;5045004;28;20044;-46
2021/08/17 07:04:17;;;;;;;5.53;3.08;;;16.00;69.50;;;;;;5046027;28;20299;-45
2021/08/17 07:07:02;;;;;;;6.35;3.00;;;16.10;69.30;;;;;;5045613;28;20023;-44
2021/08/17 07:09:46;;;;;;;6.80;3.20;;;16.20;69.20;;;;;;5045864;28;20252;-45
2021/08/17 07:12:30;;;;;;;7.65;3.40;;;16.40;69.30;;;;;;5045456;28;20087;-46
2021/08/17 07:15:15;;;;;;;5.88;2.90;;;16.40;69.40;;;;;;5044906;28;20347;-44
2021/08/17 07:17:59;;;;;;;5.32;2.75;;;16.50;69.20;;;;;;5045953;28;20024;-44
2021/08/17 07:20:43;;;;;;;5.53;2.70;;;16.50;68.00;;;;;;5045674;28;20220;-45
2021/08/17 07:23:28;;;;;;;5.93;2.90;;;16.60;67.00;;;;;;5045798;28;20040;-44
2021/08/17 07:26:12;;;;;;;10.57;2.67;;;17.50;65.70;;;;;;5045882;28;20032;-48
2021/08/17 07:28:56;;;;;;;5.93;3.10;;;18.60;61.30;;;;;;5045514;28;20064;-46
2021/08/17 07:31:41;;;;;;;5.18;3.20;;;19.50;58.60;;;;;;5045327;28;20035;-48
2021/08/17 07:34:25;;;;;;;6.80;2.72;;;20.30;57.00;;;;;;5045491;28;20072;-47
2021/08/17 07:37:09;;;;;;;4.78;2.40;;;21.30;54.80;;;;;;5044234;28;20121;-46
2021/08/17 07:39:54;;;;;;;7.28;2.85;;;21.50;53.10;;;;;;5045155;28;20267;-45
2021/08/17 07:42:38;;;;;;;5.22;2.25;;;21.40;53.70;;;;;;5045079;28;20101;-45
2021/08/17 07:45:22;;;;;;;5.40;2.25;;;21.50;53.40;;;;;;5044911;28;20068;-45
2021/08/17 07:48:07;;;;;;;6.10;2.25;;;21.70;51.80;;;;;;5045384;28;20342;-45
2021/08/17 07:50:51;;;;;;;4.72;2.30;;;21.60;51.10;;;;;;5045151;28;20044;-45
2021/08/17 07:53:35;;;;;;;3.75;2.13;;;21.30;52.20;;;;;;5044940;28;20032;-50
2021/08/17 07:56:19;;;;;;;5.93;2.53;;;21.00;52.60;;;;;;5045540;28;20213;-49
2021/08/17 07:59:04;;;;;;;4.25;2.30;;;20.70;54.00;;;;;;5044020;28;20064;-47
2021/08/17 08:01:48;;;;;;;4.95;2.55;;;20.30;53.90;;;;;;5044763;28;20032;-46
2021/08/17 08:04:32;;;;;;;4.68;2.20;;;20.00;53.50;;;;;;5045157;28;20033;-47
2021/08/17 08:07:17;;;;;;;5.15;2.45;;;19.80;55.50;;;;;;5044938;28;20063;-46
2021/08/17 08:10:01;;;;;;;4.50;2.53;;;19.70;56.00;;;;;;5044895;28;20332;-46
2021/08/17 08:12:45;;;;;;;4.32;2.30;;;19.50;57.20;;;;;;5044466;28;20076;-45
2021/08/17 08:15:30;;;;;;;3.78;2.35;;;19.30;57.40;;;;;;5044528;28;20084;-47
2021/08/17 08:18:14;;;;;;;4.97;2.50;;;19.20;56.80;;;;;;5044431;28;20053;-48
2021/08/17 08:20:58;;;;;;;5.47;2.85;;;19.00;56.10;;;;;;5045067;28;20233;-47
2021/08/17 08:23:42;;;;;;;5.93;2.90;;;18.90;57.90;;;;;;5044847;28;20068;-46
2021/08/17 08:26:26;;;;;;;5.88;2.85;;;18.90;58.60;;;;;;5044823;28;20036;-45
2021/08/17 08:29:11;;;;;;;4.47;2.63;;;18.80;57.50;;;;;;5044794;28;20032;-46
2021/08/17 08:31:55;;;;;;;5.90;2.40;;;18.80;58.30;;;;;;5044783;28;20033;-46
2021/08/17 08:34:39;;;;;;;4.88;2.38;;;18.80;56.30;;;;;;5044540;28;20049;-46
2021/08/17 08:37:24;;;;;;;7.03;3.58;;;18.80;57.20;;;;;;5044374;28;20266;-45
2021/08/17 08:40:12;;;;;;;5.20;2.50;;;18.80;58.30;;;;;;5044282;28;20036;-46
2021/08/17 08:42:56;;;;;;;6.60;2.65;;;18.80;57.50;;;;;;5044353;28;20032;-47
2021/08/17 08:45:40;;;;;;;5.55;2.63;;;18.80;57.40;;;;;;5044205;28;20128;-46
2021/08/17 08:48:24;;;;;;;4.85;2.55;;;18.80;57.10;;;;;;5042862;28;20045;-45
2021/08/17 08:51:09;;;;;;;4.13;2.30;;;18.80;57.90;;;;;;5044305;28;20021;-44
2021/08/17 08:53:53;;;;;;;3.85;2.15;;;18.80;55.90;;;;;;5043396;28;20132;-45
2021/08/17 08:56:37;;;;;;;7.13;2.63;;;18.80;56.20;;;;;;5044057;28;20044;-45
2021/08/17 08:59:21;;;;;;;5.50;2.63;;;18.80;56.30;;;;;;5044582;28;20089;-46
2021/08/17 09:02:10;;;;;;;5.57;2.78;;;18.90;56.90;;;;;;5043797;28;20039;-47
2021/08/17 09:04:56;;;;;;;7.53;2.92;;;18.90;57.40;;;;;;5044037;28;20044;-45
2021/08/17 09:07:43;;;;;;;5.45;2.45;;;18.90;58.30;;;;;;5044105;28;20270;-46
2021/08/17 09:10:28;;;;;;;5.22;2.70;;;19.00;57.30;;;;;;5043906;28;20068;-47
2021/08/17 09:13:12;;;;;;;4.75;2.50;;;19.00;57.40;;;;;;5043895;28;20113;-46
2021/08/17 09:15:56;;;;;;;6.03;2.75;;;19.00;56.80;;;;;;5043850;28;20059;-46
2021/08/17 09:18:40;;;;;;;5.72;2.60;;;19.00;56.10;;;;;;5043761;28;20089;-45
2021/08/17 09:21:40;;;;;;;6.05;2.60;;;19.00;57.30;;;;;;5043781;28;20032;-47
2021/08/17 09:24:34;;;;;;;5.40;2.88;;;19.10;56.50;;;;;;5043475;28;20048;-47
2021/08/17 09:27:20;;;;;;;3.83;2.10;;;19.10;55.60;;;;;;5043587;28;20032;-47
2021/08/17 09:30:12;;;;;;;3.90;2.20;;;19.20;55.80;;;;;;5044051;28;20072;-45
2021/08/17 09:32:57;;;;;;;6.47;2.63;;;19.30;57.30;;;;;;5043695;28;20105;-45
2021/08/17 09:35:41;;;;;;;4.82;2.65;;;19.40;55.90;;;;;;5043704;28;20072;-46
2021/08/17 09:38:25;;;;;;;6.70;2.40;;;19.30;55.00;;;;;;5043600;28;20048;-45
2021/08/17 09:41:21;;;;;;;6.13;2.58;;;19.40;55.30;;;;;;5028516;28;20105;-46
2021/08/17 09:44:07;;;;;;;5.65;2.55;;;19.50;54.30;;;;;;5043902;28;20095;-47
2021/08/17 09:46:51;;;;;;;5.43;2.80;;;19.60;55.40;;;;;;5042537;28;20032;-46
2021/08/17 09:49:35;;;;;;;5.90;2.72;;;19.70;57.00;;;;;;5028675;28;20375;-45
2021/08/17 09:52:19;;;;;;;4.70;2.78;;;19.70;55.60;;;;;;5043210;28;20351;-45
2021/08/17 09:55:04;;;;;;;5.65;2.50;;;19.80;55.00;;;;;;5043131;28;20265;-45
2021/08/17 09:57:48;;;;;;;5.10;2.63;;;19.80;54.30;;;;;;5028478;28;20093;-46
2021/08/17 10:00:33;;;;;;;6.38;2.70;;;19.80;54.30;;;;;;5045581;28;20040;-47
2021/08/17 10:03:17;;;;;;;5.63;2.45;;;20.00;54.80;;;;;;5046171;28;20387;-46
2021/08/17 10:06:02;;;;;;;5.65;2.45;;;20.00;54.10;;;;;;5047704;28;20378;-45
2021/08/17 10:08:46;;;;;;;5.03;2.25;;;19.90;52.70;;;;;;5046148;28;20076;-46
2021/08/17 10:11:30;;;;;;;5.25;2.35;;;20.00;53.70;;;;;;5047381;28;20093;-47
2021/08/17 10:14:14;;;;;;;4.60;2.38;;;20.00;55.40;;;;;;5046934;28;20097;-48
2021/08/17 10:16:58;;;;;;;6.95;2.65;;;20.20;54.90;;;;;;5047015;28;20346;-49
2021/08/17 10:19:43;;;;;;;7.22;2.40;;;20.20;54.60;;;;;;5046037;28;20072;-48
2021/08/17 10:22:27;;;;;;;7.78;2.70;;;20.30;54.10;;;;;;5031818;28;20025;-45
2021/08/17 10:25:17;;;;;;;5.22;2.58;;;20.40;55.60;;;;;;5046717;28;20028;-48
2021/08/17 10:28:03;;;;;;;5.87;2.73;;;20.40;55.40;;;;;;5046710;28;20297;-47
2021/08/17 10:30:47;;;;;;;4.82;2.55;;;20.50;55.40;;;;;;5032020;28;20030;-48
2021/08/17 10:34:00;;;;;;;6.53;2.25;;;20.60;55.50;;;;;;5046434;28;20109;-48
2021/08/17 10:36:45;;;;;;;4.95;2.08;;;20.70;53.40;;;;;;5046519;28;20047;-47
2021/08/17 10:39:29;;;;;;;4.35;2.40;;;20.80;52.70;;;;;;5046208;28;20121;-47
2021/08/17 10:42:26;;;;;;;4.57;2.30;;;20.80;52.40;;;;;;5045665;28;20033;-48
2021/08/17 10:45:27;;;;;;;6.95;2.30;;;20.90;55.10;;;;;;5046703;28;20024;-47
2021/08/17 10:48:11;;;;;;;5.60;1.95;;;20.90;50.70;;;;;;5046129;28;20067;-45
2021/08/17 10:50:56;;;;;;;4.28;2.13;;;21.00;53.50;;;;;;5045761;28;20093;-49
2021/08/17 10:53:40;;;;;;;6.25;2.28;;;21.10;53.10;;;;;;5031174;28;20075;-46
2021/08/17 10:56:28;;;;;;;4.07;2.30;;;21.10;52.90;;;;;;5046538;28;20209;-50
2021/08/17 10:59:12;;;;;;;5.00;2.30;;;21.20;51.90;;;;;;5045853;28;20032;-47
2021/08/17 11:01:56;;;;;;;4.25;2.38;;;21.20;52.80;;;;;;5046330;28;20352;-46
2021/08/17 11:04:42;;;;;;;4.40;2.50;;;21.10;52.80;;;;;;5045912;28;20305;-48
2021/08/17 11:07:27;;;;;;;5.32;2.22;;;21.10;52.20;;;;;;5045928;28;20068;-45
2021/08/17 11:10:12;;;;;;;6.25;2.38;;;21.10;52.60;;;;;;5046089;28;20059;-47
2021/08/17 11:13:07;;;;;;;5.00;2.20;;;21.20;52.20;;;;;;5045604;28;20229;-45
2021/08/17 11:16:12;;;;;;;5.18;2.40;;;21.20;52.20;;;;;;5045314;28;20087;-47
2021/08/17 11:18:57;;;;;;;4.63;2.10;;;21.20;49.30;;;;;;5045609;28;20036;-47
2021/08/17 11:21:47;;;;;;;4.30;2.10;;;21.30;51.80;;;;;;5045609;28;20028;-46
2021/08/17 11:24:39;;;;;;;4.97;2.53;;;21.30;51.80;;;;;;5045485;28;20033;-50
2021/08/17 11:27:23;;;;;;;4.15;2.20;;;21.30;50.10;;;;;;5044539;28;20032;-49
2021/08/17 11:30:09;;;;;;;5.05;2.42;;;21.40;52.10;;;;;;5045955;28;20033;-49
2021/08/17 11:32:57;;;;;;;3.88;1.92;;;21.50;50.50;;;;;;5045712;28;20229;-46
2021/08/17 11:35:41;;;;;;;4.95;2.25;;;21.60;50.70;;;;;;5045506;28;20037;-47
2021/08/17 11:38:26;;;;;;;3.97;2.10;;;21.70;50.40;;;;;;5045984;28;20092;-47
2021/08/17 11:41:28;;;;;;;5.10;2.55;;;21.80;51.10;;;;;;5045690;28;20128;-46
2021/08/17 11:44:13;;;;;;;3.70;1.90;;;21.90;51.90;;;;;;5045524;28;20101;-48
2021/08/17 11:47:04;;;;;;;4.65;2.22;;;21.90;50.60;;;;;;5045417;28;20079;-48
2021/08/17 11:49:51;;;;;;;4.80;2.10;;;22.00;49.00;;;;;;5045426;28;20252;-47
2021/08/17 11:52:37;;;;;;;4.25;2.20;;;22.00;49.00;;;;;;5045202;28;20039;-46
2021/08/17 11:55:22;;;;;;;5.43;2.08;;;21.90;49.50;;;;;;5044941;28;20174;-47
2021/08/17 11:58:08;;;;;;;4.38;2.28;;;21.80;49.10;;;;;;5044920;28;20048;-45
2021/08/17 12:00:51;;;;;;;5.85;2.20;;;21.80;50.20;;;;;;5044823;28;20025;-45
2021/08/17 12:03:36;;;;;;;4.65;2.25;;;21.80;50.40;;;;;;5044876;28;20057;-46
2021/08/17 12:06:20;;;;;;;5.88;2.33;;;21.80;50.20;;;;;;5045088;28;20041;-45
2021/08/17 12:09:18;;;;;;;7.53;2.40;;;21.70;50.30;;;;;;5045213;28;20090;-45
2021/08/17 12:12:02;;;;;;;6.05;2.40;;;21.60;50.40;;;;;;5044617;28;20040;-45
2021/08/17 12:15:06;;;;;;;6.45;2.50;;;21.70;51.70;;;;;;5044794;28;20095;-45
2021/08/17 12:18:16;;;;;;;6.63;2.30;;;21.70;50.80;;;;;;5043933;28;20075;-48
2021/08/17 12:21:05;;;;;;;5.00;2.27;;;21.80;49.70;;;;;;5044580;28;20040;-45
2021/08/17 12:23:49;;;;;;;4.18;2.60;;;21.80;50.50;;;;;;5043838;28;20037;-46
2021/08/17 12:26:33;;;;;;;5.43;2.50;;;21.80;50.50;;;;;;5044672;28;20356;-44
2021/08/17 12:29:22;;;;;;;5.20;2.58;;;21.80;50.80;;;;;;5044248;28;20029;-46
2021/08/17 12:32:37;;;;;;;4.65;2.28;;;21.70;48.70;;;;;;5044172;28;20040;-44
2021/08/17 12:35:28;;;;;;;3.47;2.33;;;21.70;48.00;;;;;;5044480;28;20393;-45
2021/08/17 12:38:14;;;;;;;7.25;2.63;;;21.70;49.00;;;;;;5044705;28;20352;-44
2021/08/17 12:40:57;;;;;;;6.57;2.45;;;21.70;50.30;;;;;;5044496;28;20410;-46
2021/08/17 12:43:42;;;;;;;5.95;2.45;;;21.80;51.40;;;;;;5044283;28;20206;-45
2021/08/17 12:46:26;;;;;;;4.57;2.50;;;21.80;51.00;;;;;;5044673;28;20089;-45
2021/08/17 12:49:11;;;;;;;4.57;2.38;;;21.90;52.60;;;;;;5043971;28;20024;-45
2021/08/17 12:51:55;;;;;;;5.78;2.70;;;22.00;52.90;;;;;;5043377;28;20036;-45
2021/08/17 12:54:39;;;;;;;6.97;3.00;;;22.20;53.00;;;;;;5043854;28;20032;-45
2021/08/17 12:57:25;;;;;;;4.97;2.83;;;22.30;51.50;;;;;;5043101;28;20051;-44
2021/08/17 13:00:14;;;;;;;5.18;2.63;;;22.30;51.20;;;;;;5044387;28;20028;-47
2021/08/17 13:02:58;;;;;;;4.65;2.53;;;22.40;52.40;;;;;;5043991;28;20335;-45
2021/08/17 13:05:43;;;;;;;6.28;2.88;;;22.40;51.60;;;;;;5044248;28;20074;-45
2021/08/17 13:08:27;;;;;;;5.05;2.80;;;22.50;51.80;;;;;;5043359;28;20108;-47
2021/08/17 13:11:11;;;;;;;5.05;2.55;;;22.40;51.30;;;;;;5043948;28;20029;-46
2021/08/17 13:13:55;;;;;;;5.93;2.75;;;22.40;49.70;;;;;;5043316;28;20056;-46
2021/08/17 13:16:40;;;;;;;4.88;2.70;;;22.40;50.70;;;;;;5043433;28;20093;-45
2021/08/17 13:19:25;;;;;;;7.00;2.80;;;22.40;51.50;;;;;;5043733;28;20056;-47
2021/08/17 13:22:09;;;;;;;5.68;3.22;;;22.40;49.70;;;;;;5043867;28;20029;-45
2021/08/17 13:24:54;;;;;;;5.80;3.13;;;22.50;51.60;;;;;;5043576;28;20028;-49
2021/08/17 13:27:38;;;;;;;6.78;2.97;;;22.50;50.20;;;;;;5043407;28;20025;-44
2021/08/17 13:30:22;;;;;;;5.43;3.08;;;22.50;50.40;;;;;;5043596;28;20024;-45
2021/08/17 13:33:09;;;;;;;5.93;3.00;;;22.40;51.10;;;;;;5043866;28;20060;-45
2021/08/17 13:35:53;;;;;;;8.13;3.05;;;22.50;50.80;;;;;;5046715;28;20201;-44
2021/08/17 13:38:37;;;;;;;7.63;3.80;;;22.60;50.90;;;;;;5047903;28;20031;-45
2021/08/17 13:41:22;;;;;;;5.45;3.00;;;22.70;50.50;;;;;;5048212;28;20108;-45
2021/08/17 13:44:06;;;;;;;5.47;3.05;;;22.70;50.30;;;;;;5047521;28;20032;-47
2021/08/17 13:46:50;;;;;;;10.02;3.08;;;22.60;49.30;;;;;;5047909;28;20044;-47
2021/08/17 13:49:35;;;;;;;6.57;2.95;;;22.50;50.70;;;;;;5047210;28;20281;-44
2021/08/17 13:52:19;;;;;;;5.90;2.83;;;22.50;50.10;;;;;;5047635;28;20036;-46
2021/08/17 13:55:04;;;;;;;5.88;3.03;;;22.60;50.10;;;;;;5046422;28;20041;-46
2021/08/17 13:57:48;;;;;;;5.75;3.20;;;22.60;49.20;;;;;;5047064;28;20036;-44
2021/08/17 14:00:32;;;;;;;6.03;3.08;;;22.50;48.80;;;;;;5047166;28;20095;-45
2021/08/17 14:03:16;;;;;;;7.00;3.08;;;22.50;48.00;;;;;;5046061;28;20096;-45
2021/08/17 14:06:01;;;;;;;5.63;2.92;;;22.50;48.20;;;;;;5046650;28;20340;-48
2021/08/17 14:08:45;;;;;;;5.43;3.17;;;22.50;48.30;;;;;;5047224;28;20379;-46
2021/08/17 14:11:29;;;;;;;7.97;3.60;;;22.50;48.00;;;;;;5047378;28;20128;-47
2021/08/17 14:14:13;;;;;;;6.93;3.42;;;22.40;48.20;;;;;;5046560;28;20044;-48
2021/08/17 14:16:57;;;;;;;5.78;3.10;;;22.50;47.50;;;;;;5046737;28;20047;-45
2021/08/17 14:19:42;;;;;;;5.38;2.80;;;22.50;47.50;;;;;;5046766;28;20049;-45